This is the latest recevied weather packets stored in our database for station/object ZB2YN-13. If no packets are shown the sender has not sent any weather packets the latest 10 day(s).
| Time | Temp. | Humidity | Pressure | Rain* | Wind** | Luminosity | Snow |
|---|---|---|---|---|---|---|---|
| 1777734006 | 18.33° C | 91% | 1009.5 hPa | 0 mm | - | - | - |
| 1777730406 | 18.33° C | 91% | 1010.3 hPa | 0 mm | - | - | - |
| 1777726805 | 18.89° C | 89% | 1010.5 hPa | 0 mm | - | - | - |
| 1777723205 | 18.33° C | 90% | 1011 hPa | 0 mm | - | - | - |
| 1777719605 | 17.78° C | 90% | 1011.3 hPa | 0 mm | - | - | - |
| 1777716006 | 17.78° C | 93% | 1011.3 hPa | 0 mm | - | - | - |
| 1777712406 | 17.78° C | 92% | 1011.1 hPa | 0 mm | - | - | - |
| 1777708805 | 17.78° C | 91% | 1010.8 hPa | 0 mm | - | - | - |
| 1777705205 | 17.78° C | 92% | 1010.4 hPa | 0 mm | - | - | - |
| 1777701605 | 17.78° C | 92% | 1010.3 hPa | 0 mm | - | - | - |
| 1777698006 | 17.78° C | 92% | 1010.2 hPa | 0 mm | - | - | - |
| 1777694406 | 17.78° C | 92% | 1010 hPa | 0 mm | - | - | - |
| 1777690805 | 17.78° C | 93% | 1010.5 hPa | 0 mm | - | - | - |
| 1777687205 | 17.78° C | 93% | 1010.7 hPa | 0 mm | - | - | - |
| 1777683606 | 17.78° C | 94% | 1011.8 hPa | 0 mm | - | - | - |
| 1777680006 | 18.33° C | 91% | 1012 hPa | 0 mm | - | - | - |
| 1777676406 | 18.33° C | 86% | 1012.1 hPa | 0 mm | - | - | - |
| 1777672805 | 18.33° C | 83% | 1012.2 hPa | 0 mm | - | - | - |
| 1777669205 | 18.33° C | 79% | 1012.1 hPa | 0 mm | - | - | - |
| 1777665605 | 18.33° C | 80% | 1011.4 hPa | 0 mm | - | - | - |
| 1777662006 | 18.89° C | 73% | 1011 hPa | 0 mm | - | - | - |
| 1777658406 | 20.56° C | 66% | 1010.8 hPa | 0 mm | - | - | - |
| 1777654805 | 22.22° C | 59% | 1011 hPa | 0 mm | - | - | - |
| 1777651205 | 21.67° C | 66% | 1010.8 hPa | 0 mm | - | - | - |
| 1777647605 | 20.56° C | 72% | 1011.1 hPa | 0 mm | - | - | - |
* Rain latest hour (hover to see other rain measurements)
** Current wind speed in m/s (hover to see current wind gust speed)